sensor_id;sensor_type;location;lat;lon;timestamp;pressure;altitude;pressure_sealevel;temperature;humidity
20455;BME280;10386;54.314;10.022;2024-03-17T00:02:19;102743.16;;;4.63;100.00
20455;BME280;10386;54.314;10.022;2024-03-17T00:04:45;102735.13;;;4.61;100.00
20455;BME280;10386;54.314;10.022;2024-03-17T00:07:12;102733.25;;;4.65;100.00
20455;BME280;10386;54.314;10.022;2024-03-17T00:09:42;102742.16;;;4.68;100.00
20455;BME280;10386;54.314;10.022;2024-03-17T00:12:08;102735.81;;;4.72;100.00
20455;BME280;10386;54.314;10.022;2024-03-17T00:14:34;102741.16;;;4.77;100.00
20455;BME280;10386;54.314;10.022;2024-03-17T00:17:01;102748.41;;;4.70;100.00
20455;BME280;10386;54.314;10.022;2024-03-17T00:19:27;102750.22;;;4.70;100.00
20455;BME280;10386;54.314;10.022;2024-03-17T00:21:53;102755.72;;;4.62;100.00
20455;BME280;10386;54.314;10.022;2024-03-17T00:24:19;102760.41;;;4.50;100.00
20455;BME280;10386;54.314;10.022;2024-03-17T00:26:46;102759.59;;;4.46;100.00
20455;BME280;10386;54.314;10.022;2024-03-17T00:29:12;102773.06;;;4.43;100.00
20455;BME280;10386;54.314;10.022;2024-03-17T00:31:38;102764.97;;;4.46;100.00
20455;BME280;10386;54.314;10.022;2024-03-17T00:34:04;102775.72;;;4.46;100.00
20455;BME280;10386;54.314;10.022;2024-03-17T00:36:30;102782.06;;;4.41;100.00
20455;BME280;10386;54.314;10.022;2024-03-17T00:38:56;102783.78;;;4.46;100.00
20455;BME280;10386;54.314;10.022;2024-03-17T00:41:22;102772.94;;;4.51;100.00
20455;BME280;10386;54.314;10.022;2024-03-17T00:43:52;102777.53;;;4.44;100.00
20455;BME280;10386;54.314;10.022;2024-03-17T00:46:20;102778.44;;;4.43;100.00
20455;BME280;10386;54.314;10.022;2024-03-17T00:48:48;102782.00;;;4.44;100.00
20455;BME280;10386;54.314;10.022;2024-03-17T00:51:14;102781.97;;;4.48;100.00
20455;BME280;10386;54.314;10.022;2024-03-17T00:53:40;102781.97;;;4.48;100.00
20455;BME280;10386;54.314;10.022;2024-03-17T00:56:06;102778.41;;;4.45;100.00
20455;BME280;10386;54.314;10.022;2024-03-17T00:58:32;102784.69;;;4.44;100.00
20455;BME280;10386;54.314;10.022;2024-03-17T01:00:58;102786.56;;;4.40;100.00
20455;BME280;10386;54.314;10.022;2024-03-17T01:03:24;102786.47;;;4.45;100.00
20455;BME280;10386;54.314;10.022;2024-03-17T01:05:50;102782.88;;;4.46;100.00
20455;BME280;10386;54.314;10.022;2024-03-17T01:08:18;102782.88;;;4.47;100.00
20455;BME280;10386;54.314;10.022;2024-03-17T01:10:46;102789.16;;;4.45;100.00
20455;BME280;10386;54.314;10.022;2024-03-17T01:13:15;102789.25;;;4.40;100.00
20455;BME280;10386;54.314;10.022;2024-03-17T01:15:42;102799.97;;;4.42;100.00
20455;BME280;10386;54.314;10.022;2024-03-17T01:18:08;102794.53;;;4.45;100.00
20455;BME280;10386;54.314;10.022;2024-03-17T01:20:37;102800.91;;;4.39;100.00
20455;BME280;10386;54.314;10.022;2024-03-17T01:23:04;102801.06;;;4.30;100.00
20455;BME280;10386;54.314;10.022;2024-03-17T01:25:33;102785.91;;;4.25;100.00
20455;BME280;10386;54.314;10.022;2024-03-17T01:28:01;102791.28;;;4.23;100.00
20455;BME280;10386;54.314;10.022;2024-03-17T01:30:27;102781.44;;;4.24;100.00
20455;BME280;10386;54.314;10.022;2024-03-17T01:32:53;102784.13;;;4.22;100.00
20455;BME280;10386;54.314;10.022;2024-03-17T01:35:18;102782.25;;;4.29;100.00
20455;BME280;10386;54.314;10.022;2024-03-17T01:37:45;102779.66;;;4.21;100.00
20455;BME280;10386;54.314;10.022;2024-03-17T01:40:11;102785.06;;;4.20;100.00
20455;BME280;10386;54.314;10.022;2024-03-17T01:42:38;102783.34;;;4.14;100.00
20455;BME280;10386;54.314;10.022;2024-03-17T01:47:42;102787.03;;;4.07;100.00
20455;BME280;10386;54.314;10.022;2024-03-17T01:50:09;102789.75;;;4.04;100.00
20455;BME280;10386;54.314;10.022;2024-03-17T01:52:35;102791.44;;;4.11;100.00
20455;BME280;10386;54.314;10.022;2024-03-17T01:55:03;102779.00;;;4.04;100.00
20455;BME280;10386;54.314;10.022;2024-03-17T01:57:29;102781.78;;;3.99;100.00
20455;BME280;10386;54.314;10.022;2024-03-17T01:59:56;102773.75;;;3.97;100.00
20455;BME280;10386;54.314;10.022;2024-03-17T02:02:22;102775.53;;;3.98;100.00
20455;BME280;10386;54.314;10.022;2024-03-17T02:04:49;102784.59;;;3.91;100.00
20455;BME280;10386;54.314;10.022;2024-03-17T02:07:15;102784.63;;;3.88;100.00
20455;BME280;10386;54.314;10.022;2024-03-17T02:09:41;102772.94;;;3.92;100.00
20455;BME280;10386;54.314;10.022;2024-03-17T02:12:09;102781.91;;;3.90;100.00
20455;BME280;10386;54.314;10.022;2024-03-17T02:14:35;102770.38;;;3.83;100.00
20455;BME280;10386;54.314;10.022;2024-03-17T02:17:01;102780.41;;;3.68;100.00
20455;BME280;10386;54.314;10.022;2024-03-17T02:19:27;102784.03;;;3.62;100.00
20455;BME280;10386;54.314;10.022;2024-03-17T02:21:53;102786.88;;;3.52;100.00
20455;BME280;10386;54.314;10.022;2024-03-17T02:24:19;102794.13;;;3.44;100.00
20455;BME280;10386;54.314;10.022;2024-03-17T02:26:45;102798.66;;;3.37;100.00
20455;BME280;10386;54.314;10.022;2024-03-17T02:29:10;102793.34;;;3.30;100.00
20455;BME280;10386;54.314;10.022;2024-03-17T02:31:36;102798.75;;;3.27;100.00
20455;BME280;10386;54.314;10.022;2024-03-17T02:34:02;102800.56;;;3.25;100.00
20455;BME280;10386;54.314;10.022;2024-03-17T02:36:29;102794.28;;;3.27;100.00
20455;BME280;10386;54.314;10.022;2024-03-17T02:38:55;102796.94;;;3.29;100.00
20455;BME280;10386;54.314;10.022;2024-03-17T02:41:45;102807.66;;;3.33;100.00
20455;BME280;10386;54.314;10.022;2024-03-17T02:44:11;102805.84;;;3.34;100.00
20455;BME280;10386;54.314;10.022;2024-03-17T02:46:37;102804.81;;;3.47;100.00
20455;BME280;10386;54.314;10.022;2024-03-17T02:49:03;102808.25;;;3.59;100.00
20455;BME280;10386;54.314;10.022;2024-03-17T02:51:29;102801.09;;;3.60;100.00
20455;BME280;10386;54.314;10.022;2024-03-17T02:53:55;102802.81;;;3.65;100.00
20455;BME280;10386;54.314;10.022;2024-03-17T02:56:21;102806.31;;;3.72;100.00
20455;BME280;10386;54.314;10.022;2024-03-17T02:58:48;102802.75;;;3.70;100.00
20455;BME280;10386;54.314;10.022;2024-03-17T03:01:15;102804.44;;;3.78;100.00
20455;BME280;10386;54.314;10.022;2024-03-17T03:03:41;102796.41;;;3.77;100.00
20455;BME280;10386;54.314;10.022;2024-03-17T03:06:07;102800.94;;;3.70;100.00
20455;BME280;10386;54.314;10.022;2024-03-17T03:08:40;102799.13;;;3.72;100.00
20455;BME280;10386;54.314;10.022;2024-03-17T03:11:09;102800.94;;;3.70;100.00
20455;BME280;10386;54.314;10.022;2024-03-17T03:13:43;102806.31;;;3.70;100.00
20455;BME280;10386;54.314;10.022;2024-03-17T03:16:11;102810.78;;;3.71;100.00
20455;BME280;10386;54.314;10.022;2024-03-17T03:18:38;102809.03;;;3.69;100.00
20455;BME280;10386;54.314;10.022;2024-03-17T03:21:07;102809.19;;;3.57;100.00
20455;BME280;10386;54.314;10.022;2024-03-17T03:23:34;102811.97;;;3.48;100.00
20455;BME280;10386;54.314;10.022;2024-03-17T03:26:01;102807.41;;;3.54;100.00
20455;BME280;10386;54.314;10.022;2024-03-17T03:28:31;102807.47;;;3.48;100.00
20455;BME280;10386;54.314;10.022;2024-03-17T03:30:57;102806.69;;;3.40;100.00
20455;BME280;10386;54.314;10.022;2024-03-17T03:33:23;102806.72;;;3.36;100.00
20455;BME280;10386;54.314;10.022;2024-03-17T03:35:49;102811.28;;;3.26;100.00
20455;BME280;10386;54.314;10.022;2024-03-17T03:38:17;102804.22;;;3.18;100.00
20455;BME280;10386;54.314;10.022;2024-03-17T03:40:44;102809.66;;;3.13;100.00
20455;BME280;10386;54.314;10.022;2024-03-17T03:43:10;102810.59;;;3.05;100.00
20455;BME280;10386;54.314;10.022;2024-03-17T03:45:36;102815.13;;;3.00;100.00
20455;BME280;10386;54.314;10.022;2024-03-17T03:48:03;102814.25;;;2.98;100.00
20455;BME280;10386;54.314;10.022;2024-03-17T03:50:30;102819.59;;;2.96;100.00
20455;BME280;10386;54.314;10.022;2024-03-17T03:52:56;102809.84;;;2.89;100.00
20455;BME280;10386;54.314;10.022;2024-03-17T03:55:22;102809.00;;;2.84;100.00
20455;BME280;10386;54.314;10.022;2024-03-17T03:57:49;102809.13;;;2.69;100.00
20455;BME280;10386;54.314;10.022;2024-03-17T04:00:18;102806.34;;;2.81;100.00
20455;BME280;10386;54.314;10.022;2024-03-17T04:02:49;102809.94;;;2.82;100.00
20455;BME280;10386;54.314;10.022;2024-03-17T04:05:18;102813.53;;;2.76;100.00
20455;BME280;10386;54.314;10.022;2024-03-17T04:07:45;102805.41;;;2.85;100.00
20455;BME280;10386;54.314;10.022;2024-03-17T04:10:12;102803.66;;;2.83;100.00
20455;BME280;10386;54.314;10.022;2024-03-17T04:12:38;102806.22;;;2.93;100.00
20455;BME280;10386;54.314;10.022;2024-03-17T04:15:05;102807.09;;;2.97;100.00
20455;BME280;10386;54.314;10.022;2024-03-17T04:17:32;102807.97;;;2.99;100.00
20455;BME280;10386;54.314;10.022;2024-03-17T04:19:59;102803.53;;;2.99;100.00
20455;BME280;10386;54.314;10.022;2024-03-17T04:22:25;102797.34;;;2.90;100.00
20455;BME280;10386;54.314;10.022;2024-03-17T04:24:51;102805.41;;;2.87;100.00
20455;BME280;10386;54.314;10.022;2024-03-17T04:27:25;102791.13;;;2.85;100.00
20455;BME280;10386;54.314;10.022;2024-03-17T04:29:53;102795.63;;;2.80;100.00
20455;BME280;10386;54.314;10.022;2024-03-17T04:32:22;102789.50;;;2.66;100.00
20455;BME280;10386;54.314;10.022;2024-03-17T04:34:49;102786.88;;;2.59;100.00
20455;BME280;10386;54.314;10.022;2024-03-17T04:37:15;102790.50;;;2.47;100.00
20455;BME280;10386;54.314;10.022;2024-03-17T04:39:45;102796.84;;;2.39;100.00
20455;BME280;10386;54.314;10.022;2024-03-17T04:42:15;102794.16;;;2.37;100.00
20455;BME280;10386;54.314;10.022;2024-03-17T04:44:43;102801.31;;;2.40;100.00
20455;BME280;10386;54.314;10.022;2024-03-17T04:47:09;102799.47;;;2.45;100.00
20455;BME280;10386;54.314;10.022;2024-03-17T04:49:42;102803.13;;;2.33;100.00
20455;BME280;10386;54.314;10.022;2024-03-17T04:52:10;102796.91;;;2.25;100.00
20455;BME280;10386;54.314;10.022;2024-03-17T04:54:36;102805.94;;;2.17;100.00
20455;BME280;10386;54.314;10.022;2024-03-17T04:57:02;102802.41;;;2.07;100.00
20455;BME280;10386;54.314;10.022;2024-03-17T04:59:28;102813.09;;;2.07;100.00
20455;BME280;10386;54.314;10.022;2024-03-17T05:01:55;102812.25;;;1.99;100.00
20455;BME280;10386;54.314;10.022;2024-03-17T05:04:20;102823.97;;;1.80;100.00
20455;BME280;10386;54.314;10.022;2024-03-17T05:06:48;102814.16;;;1.79;100.00
20455;BME280;10386;54.314;10.022;2024-03-17T05:09:16;102813.25;;;1.73;100.00
20455;BME280;10386;54.314;10.022;2024-03-17T05:11:42;102814.16;;;1.69;100.00
20455;BME280;10386;54.314;10.022;2024-03-17T05:14:08;102819.53;;;1.70;100.00
20455;BME280;10386;54.314;10.022;2024-03-17T05:16:34;102827.59;;;1.60;100.00
20455;BME280;10386;54.314;10.022;2024-03-17T05:19:00;102833.88;;;1.42;100.00
20455;BME280;10386;54.314;10.022;2024-03-17T05:21:26;102837.47;;;1.27;100.00
20455;BME280;10386;54.314;10.022;2024-03-17T05:23:56;102834.81;;;1.31;100.00
20455;BME280;10386;54.314;10.022;2024-03-17T05:26:25;102833.88;;;1.36;100.00
20455;BME280;10386;54.314;10.022;2024-03-17T05:28:51;102836.56;;;1.38;100.00
20455;BME280;10386;54.314;10.022;2024-03-17T05:31:16;102828.53;;;1.39;100.00
20455;BME280;10386;54.314;10.022;2024-03-17T05:33:46;102836.53;;;1.50;100.00
20455;BME280;10386;54.314;10.022;2024-03-17T05:36:12;102837.44;;;1.38;100.00
20455;BME280;10386;54.314;10.022;2024-03-17T05:38:38;102830.31;;;1.34;100.00
20455;BME280;10386;54.314;10.022;2024-03-17T05:41:06;102834.84;;;1.06;100.00
20455;BME280;10386;54.314;10.022;2024-03-17T05:43:33;102825.91;;;1.02;100.00
20455;BME280;10386;54.314;10.022;2024-03-17T05:46:02;102824.13;;;1.07;100.00
20455;BME280;10386;54.314;10.022;2024-03-17T05:48:29;102839.28;;;1.16;100.00
20455;BME280;10386;54.314;10.022;2024-03-17T05:50:55;102836.59;;;0.93;100.00
20455;BME280;10386;54.314;10.022;2024-03-17T05:53:23;102845.53;;;1.12;100.00
20455;BME280;10386;54.314;10.022;2024-03-17T05:55:52;102844.59;;;1.17;100.00
20455;BME280;10386;54.314;10.022;2024-03-17T05:58:17;102846.38;;;1.29;100.00
20455;BME280;10386;54.314;10.022;2024-03-17T06:00:43;102849.94;;;1.33;100.00
20455;BME280;10386;54.314;10.022;2024-03-17T06:03:10;102861.53;;;1.16;100.00
20455;BME280;10386;54.314;10.022;2024-03-17T06:05:38;102866.03;;;1.07;100.00
20455;BME280;10386;54.314;10.022;2024-03-17T06:08:06;102863.34;;;0.99;100.00
20455;BME280;10386;54.314;10.022;2024-03-17T06:10:36;102866.03;;;1.01;100.00
20455;BME280;10386;54.314;10.022;2024-03-17T06:13:02;102870.47;;;1.09;100.00
20455;BME280;10386;54.314;10.022;2024-03-17T06:15:29;102871.38;;;1.29;100.00
20455;BME280;10386;54.314;10.022;2024-03-17T06:17:55;102875.81;;;1.32;100.00
20455;BME280;10386;54.314;10.022;2024-03-17T06:20:23;102866.00;;;1.33;100.00
20455;BME280;10386;54.314;10.022;2024-03-17T06:22:50;102872.22;;;1.47;100.00
20455;BME280;10386;54.314;10.022;2024-03-17T06:25:16;102865.75;;;2.14;100.00
20455;BME280;10386;54.314;10.022;2024-03-17T06:27:42;102862.66;;;2.83;100.00
20455;BME280;10386;54.314;10.022;2024-03-17T06:30:14;102859.25;;;3.61;100.00
20455;BME280;10386;54.314;10.022;2024-03-17T06:32:41;102852.34;;;4.14;100.00
20455;BME280;10386;54.314;10.022;2024-03-17T06:35:09;102846.84;;;5.35;100.00
20455;BME280;10386;54.314;10.022;2024-03-17T06:37:36;102845.09;;;5.82;100.00
20455;BME280;10386;54.314;10.022;2024-03-17T06:40:02;102853.72;;;5.52;100.00
20455;BME280;10386;54.314;10.022;2024-03-17T06:42:30;102860.19;;;4.89;100.00
20455;BME280;10386;54.314;10.022;2024-03-17T06:44:55;102865.47;;;4.39;100.00
20455;BME280;10386;54.314;10.022;2024-03-17T06:47:22;102868.75;;;3.92;100.00
20455;BME280;10386;54.314;10.022;2024-03-17T06:49:47;102876.22;;;3.64;100.00
20455;BME280;10386;54.314;10.022;2024-03-17T06:52:13;102877.16;;;3.60;100.00
20455;BME280;10386;54.314;10.022;2024-03-17T06:54:39;102885.22;;;3.60;100.00
20455;BME280;10386;54.314;10.022;2024-03-17T06:57:05;102890.56;;;3.65;100.00
20455;BME280;10386;54.314;10.022;2024-03-17T06:59:35;102879.38;;;4.02;100.00
20455;BME280;10386;54.314;10.022;2024-03-17T07:02:01;102876.22;;;4.38;100.00
20455;BME280;10386;54.314;10.022;2024-03-17T07:04:27;102887.09;;;4.29;100.00
20455;BME280;10386;54.314;10.022;2024-03-17T07:06:52;102891.44;;;4.40;100.00
20455;BME280;10386;54.314;10.022;2024-03-17T07:09:18;102901.16;;;4.50;100.00
20455;BME280;10386;54.314;10.022;2024-03-17T07:11:44;102895.50;;;4.68;100.00
20455;BME280;10386;54.314;10.022;2024-03-17T07:14:11;102902.44;;;4.84;100.00
20455;BME280;10386;54.314;10.022;2024-03-17T07:16:37;102901.44;;;4.91;100.00
20455;BME280;10386;54.314;10.022;2024-03-17T07:19:03;102905.75;;;5.03;100.00
20455;BME280;10386;54.314;10.022;2024-03-17T07:21:30;102909.59;;;4.87;100.00
20455;BME280;10386;54.314;10.022;2024-03-17T07:23:57;102911.16;;;5.01;100.00
20455;BME280;10386;54.314;10.022;2024-03-17T07:26:25;102915.41;;;5.16;100.00
20455;BME280;10386;54.314;10.022;2024-03-17T07:28:51;102918.09;;;5.17;100.00
20455;BME280;10386;54.314;10.022;2024-03-17T07:31:17;102916.22;;;5.21;100.00
20455;BME280;10386;54.314;10.022;2024-03-17T07:33:43;102930.50;;;5.26;100.00
20455;BME280;10386;54.314;10.022;2024-03-17T07:36:09;102925.81;;;5.37;100.00
20455;BME280;10386;54.314;10.022;2024-03-17T07:38:36;102936.16;;;5.63;100.00
20455;BME280;10386;54.314;10.022;2024-03-17T07:41:03;102941.31;;;5.74;100.00
20455;BME280;10386;54.314;10.022;2024-03-17T07:43:35;102935.88;;;5.77;100.00
20455;BME280;10386;54.314;10.022;2024-03-17T07:46:06;102946.56;;;5.84;100.00
20455;BME280;10386;54.314;10.022;2024-03-17T07:48:34;102946.53;;;5.87;100.00
20455;BME280;10386;54.314;10.022;2024-03-17T07:51:08;102950.88;;;5.96;100.00
20455;BME280;10386;54.314;10.022;2024-03-17T07:53:36;102962.53;;;5.96;100.00
20455;BME280;10386;54.314;10.022;2024-03-17T07:56:05;102955.66;;;5.76;100.00
20455;BME280;10386;54.314;10.022;2024-03-17T07:58:32;102960.13;;;5.77;100.00
20455;BME280;10386;54.314;10.022;2024-03-17T08:01:00;102970.66;;;5.92;100.00
20455;BME280;10386;54.314;10.022;2024-03-17T08:03:27;102977.03;;;5.88;100.00
20455;BME280;10386;54.314;10.022;2024-03-17T08:05:53;102980.47;;;5.99;100.00
20455;BME280;10386;54.314;10.022;2024-03-17T08:08:20;102980.34;;;6.03;100.00
20455;BME280;10386;54.314;10.022;2024-03-17T08:10:45;102990.84;;;6.18;100.00
20455;BME280;10386;54.314;10.022;2024-03-17T08:13:15;102986.59;;;6.07;100.00
20455;BME280;10386;54.314;10.022;2024-03-17T08:15:44;102977.34;;;6.20;100.00
20455;BME280;10386;54.314;10.022;2024-03-17T08:18:14;102975.34;;;6.29;100.00
20455;BME280;10386;54.314;10.022;2024-03-17T08:20:41;102973.19;;;6.48;100.00
20455;BME280;10386;54.314;10.022;2024-03-17T08:23:12;102978.03;;;6.29;100.00
20455;BME280;10386;54.314;10.022;2024-03-17T08:25:39;102985.56;;;6.14;100.00
20455;BME280;10386;54.314;10.022;2024-03-17T08:28:05;102986.31;;;5.70;100.00
20455;BME280;10386;54.314;10.022;2024-03-17T08:30:33;102983.84;;;6.54;100.00
20455;BME280;10386;54.314;10.022;2024-03-17T08:33:00;102984.34;;;6.72;100.00
20455;BME280;10386;54.314;10.022;2024-03-17T08:35:26;102972.53;;;6.78;100.00
20455;BME280;10386;54.314;10.022;2024-03-17T08:37:52;102975.91;;;6.88;100.00
20455;BME280;10386;54.314;10.022;2024-03-17T08:40:21;102974.38;;;6.76;100.00
20455;BME280;10386;54.314;10.022;2024-03-17T08:42:48;102971.50;;;6.84;100.00
20455;BME280;10386;54.314;10.022;2024-03-17T08:45:14;102978.50;;;6.93;100.00
20455;BME280;10386;54.314;10.022;2024-03-17T08:47:41;102978.75;;;6.81;100.00
20455;BME280;10386;54.314;10.022;2024-03-17T08:50:08;102978.25;;;6.63;100.00
20455;BME280;10386;54.314;10.022;2024-03-17T08:52:34;102967.44;;;6.64;100.00
20455;BME280;10386;54.314;10.022;2024-03-17T08:55:00;102969.41;;;6.56;100.00
20455;BME280;10386;54.314;10.022;2024-03-17T08:57:35;102975.41;;;6.70;100.00
20455;BME280;10386;54.314;10.022;2024-03-17T09:00:01;102963.13;;;6.96;100.00
20455;BME280;10386;54.314;10.022;2024-03-17T09:02:27;102965.56;;;7.07;100.00
20455;BME280;10386;54.314;10.022;2024-03-17T09:04:53;102954.53;;;7.16;100.00
20455;BME280;10386;54.314;10.022;2024-03-17T09:07:19;102950.81;;;7.23;100.00
20455;BME280;10386;54.314;10.022;2024-03-17T09:09:47;102938.84;;;7.33;100.00
20455;BME280;10386;54.314;10.022;2024-03-17T09:12:13;102945.19;;;7.30;100.00
20455;BME280;10386;54.314;10.022;2024-03-17T09:14:39;102939.88;;;7.27;100.00
20455;BME280;10386;54.314;10.022;2024-03-17T09:17:06;102937.53;;;7.12;100.00
20455;BME280;10386;54.314;10.022;2024-03-17T09:19:32;102936.84;;;7.41;100.00
20455;BME280;10386;54.314;10.022;2024-03-17T09:21:59;102936.31;;;7.25;100.00
20455;BME280;10386;54.314;10.022;2024-03-17T09:24:25;102926.53;;;7.20;100.00
20455;BME280;10386;54.314;10.022;2024-03-17T09:26:52;102936.53;;;7.51;100.00
20455;BME280;10386;54.314;10.022;2024-03-17T09:29:19;102936.31;;;7.60;100.00
20455;BME280;10386;54.314;10.022;2024-03-17T09:31:45;102926.50;;;7.21;100.00
20455;BME280;10386;54.314;10.022;2024-03-17T09:34:10;102937.97;;;7.67;100.00
20455;BME280;10386;54.314;10.022;2024-03-17T09:36:36;102939.25;;;7.86;100.00
20455;BME280;10386;54.314;10.022;2024-03-17T09:39:02;102920.09;;;7.94;100.00
20455;BME280;10386;54.314;10.022;2024-03-17T09:41:30;102929.84;;;7.67;100.00
20455;BME280;10386;54.314;10.022;2024-03-17T09:43:57;102922.44;;;8.06;100.00
20455;BME280;10386;54.314;10.022;2024-03-17T09:46:25;102922.16;;;8.16;100.00
20455;BME280;10386;54.314;10.022;2024-03-17T09:48:53;102920.66;;;8.06;100.00
20455;BME280;10386;54.314;10.022;2024-03-17T09:51:21;102913.66;;;7.98;100.00
20455;BME280;10386;54.314;10.022;2024-03-17T09:53:48;102915.59;;;7.93;100.00
20455;BME280;10386;54.314;10.022;2024-03-17T09:56:16;102915.44;;;7.99;100.00
20455;BME280;10386;54.314;10.022;2024-03-17T09:58:43;102927.16;;;7.67;100.00
20455;BME280;10386;54.314;10.022;2024-03-17T10:01:09;102921.34;;;7.82;100.00
20455;BME280;10386;54.314;10.022;2024-03-17T10:03:49;102919.53;;;8.13;100.00
20455;BME280;10386;54.314;10.022;2024-03-17T10:06:18;102922.13;;;8.19;100.00
20455;BME280;10386;54.314;10.022;2024-03-17T10:08:49;102921.75;;;7.99;100.00
20455;BME280;10386;54.314;10.022;2024-03-17T10:11:17;102927.59;;;7.83;100.00
20455;BME280;10386;54.314;10.022;2024-03-17T10:13:44;102915.78;;;8.20;100.00
20455;BME280;10386;54.314;10.022;2024-03-17T10:16:21;102924.66;;;8.25;100.00
20455;BME280;10386;54.314;10.022;2024-03-17T10:18:48;102920.66;;;8.06;100.00
20455;BME280;10386;54.314;10.022;2024-03-17T10:21:25;102921.19;;;8.20;100.00
20455;BME280;10386;54.314;10.022;2024-03-17T10:26:30;102920.06;;;8.27;100.00
20455;BME280;10386;54.314;10.022;2024-03-17T10:28:56;102913.06;;;8.20;100.00
20455;BME280;10386;54.314;10.022;2024-03-17T10:31:22;102922.97;;;8.21;100.00
20455;BME280;10386;54.314;10.022;2024-03-17T10:34:01;102919.63;;;8.42;100.00
20455;BME280;10386;54.314;10.022;2024-03-17T10:36:26;102918.69;;;8.43;100.00
20455;BME280;10386;54.314;10.022;2024-03-17T10:38:52;102928.44;;;8.20;100.00
20455;BME280;10386;54.314;10.022;2024-03-17T10:41:21;102915.44;;;7.99;100.00
20455;BME280;10386;54.314;10.022;2024-03-17T10:43:48;102923.50;;;8.33;100.00
20455;BME280;10386;54.314;10.022;2024-03-17T10:46:15;102915.31;;;8.03;100.00
20455;BME280;10386;54.314;10.022;2024-03-17T10:48:41;102927.19;;;7.98;100.00
20455;BME280;10386;54.314;10.022;2024-03-17T10:51:16;102924.94;;;8.45;100.00
20455;BME280;10386;54.314;10.022;2024-03-17T10:53:45;102919.53;;;8.45;100.00
20455;BME280;10386;54.314;10.022;2024-03-17T10:56:14;102927.25;;;8.28;100.00
20455;BME280;10386;54.314;10.022;2024-03-17T10:58:44;102929.94;;;8.29;100.00
20455;BME280;10386;54.314;10.022;2024-03-17T11:01:16;102930.47;;;7.77;100.00
20455;BME280;10386;54.314;10.022;2024-03-17T11:03:41;102927.16;;;8.32;100.00
20455;BME280;10386;54.314;10.022;2024-03-17T11:06:09;102919.19;;;8.57;100.00
20455;BME280;10386;54.314;10.022;2024-03-17T11:08:36;102918.78;;;8.08;100.00
20455;BME280;10386;54.314;10.022;2024-03-17T11:11:03;102921.28;;;8.16;100.00
20455;BME280;10386;54.314;10.022;2024-03-17T11:13:31;102915.13;;;8.42;100.00
20455;BME280;10386;54.314;10.022;2024-03-17T11:15:58;102930.59;;;8.37;100.00
20455;BME280;10386;54.314;10.022;2024-03-17T11:21:21;102913.03;;;8.52;100.00
20455;BME280;10386;54.314;10.022;2024-03-17T11:23:58;102903.19;;;8.48;100.00
20455;BME280;10386;54.314;10.022;2024-03-17T11:26:32;102906.50;;;8.59;100.00
20455;BME280;10386;54.314;10.022;2024-03-17T11:28:59;102902.63;;;8.37;100.00
20455;BME280;10386;54.314;10.022;2024-03-17T11:31:35;102909.31;;;8.25;100.00
20455;BME280;10386;54.314;10.022;2024-03-17T11:34:03;102907.19;;;8.65;100.00
20455;BME280;10386;54.314;10.022;2024-03-17T11:36:38;102894.31;;;8.73;100.00
20455;BME280;10386;54.314;10.022;2024-03-17T11:39:08;102895.19;;;8.74;100.00
20455;BME280;10386;54.314;10.022;2024-03-17T11:41:48;102886.63;;;8.60;100.00
20455;BME280;10386;54.314;10.022;2024-03-17T11:47:00;102893.34;;;8.76;100.00
20455;BME280;10386;54.314;10.022;2024-03-17T11:49:43;102882.63;;;9.00;100.00
20455;BME280;10386;54.314;10.022;2024-03-17T11:54:40;102897.38;;;9.18;100.00
20455;BME280;10386;54.314;10.022;2024-03-17T11:57:07;102898.72;;;9.31;100.00
20455;BME280;10386;54.314;10.022;2024-03-17T11:59:33;102887.25;;;9.23;100.00
20455;BME280;10386;54.314;10.022;2024-03-17T12:01:59;102889.19;;;8.92;100.00
20455;BME280;10386;54.314;10.022;2024-03-17T12:04:26;102901.09;;;8.86;100.00
20455;BME280;10386;54.314;10.022;2024-03-17T12:06:56;102898.72;;;9.31;100.00
20455;BME280;10386;54.314;10.022;2024-03-17T12:09:27;102888.41;;;9.16;100.00
20455;BME280;10386;54.314;10.022;2024-03-17T12:12:04;102881.31;;;8.57;100.00
20455;BME280;10386;54.314;10.022;2024-03-17T12:14:30;102886.63;;;8.60;100.00
20455;BME280;10386;54.314;10.022;2024-03-17T12:17:02;102880.34;;;8.87;100.00
20455;BME280;10386;54.314;10.022;2024-03-17T12:19:28;102871.66;;;8.76;100.00
20455;BME280;10386;54.314;10.022;2024-03-17T12:21:56;102869.94;;;8.73;100.00
20455;BME280;10386;54.314;10.022;2024-03-17T12:24:30;102877.75;;;9.10;100.00
20455;BME280;10386;54.314;10.022;2024-03-17T12:26:58;102868.28;;;9.23;100.00
20455;BME280;10386;54.314;10.022;2024-03-17T12:32:00;102855.34;;;8.77;100.00
20455;BME280;10386;54.314;10.022;2024-03-17T12:34:29;102853.94;;;8.66;100.00
20455;BME280;10386;54.314;10.022;2024-03-17T12:36:57;102858.13;;;9.03;100.00
20455;BME280;10386;54.314;10.022;2024-03-17T12:44:37;102838.69;;;8.89;100.00
20455;BME280;10386;54.314;10.022;2024-03-17T12:47:05;102847.75;;;8.88;100.00
20455;BME280;10386;54.314;10.022;2024-03-17T12:49:34;102838.91;;;8.83;100.00
20455;BME280;10386;54.314;10.022;2024-03-17T12:52:01;102834.72;;;9.01;100.00
20455;BME280;10386;54.314;10.022;2024-03-17T12:54:28;102834.13;;;8.91;100.00
20455;BME280;10386;54.314;10.022;2024-03-17T12:57:07;102845.88;;;8.92;100.00
20455;BME280;10386;54.314;10.022;2024-03-17T12:59:51;102841.16;;;9.24;100.00
20455;BME280;10386;54.314;10.022;2024-03-17T13:02:41;102838.94;;;9.37;100.00
20455;BME280;10386;54.314;10.022;2024-03-17T13:05:13;102835.28;;;9.38;100.00